Time;durP1;ratioP1;P1;durP2;ratioP2;P2;SDS_P1;SDS_P2;PMS_P1;PMS_P2;Temp;Humidity;BMP_temperature;BMP_pressure;BME280_temperature;BME280_humidity;BME280_pressure;Samples;Min_cycle;Max_cycle;Signal;HPM_P1;HPM_P2
2022/07/13 05:01:41;;;;;;;;;8.33;8.33;;;;;24.20;50.04;101822.81;5041727;27;45444;-74
2022/07/13 05:04:06;;;;;;;;;8.67;8.33;;;;;24.26;49.93;101815.09;5030821;28;45602;-74
2022/07/13 05:06:31;;;;;;;;;9.00;9.00;;;;;24.43;49.32;101817.03;5026367;28;45545;-75
2022/07/13 05:08:58;;;;;;;;;11.00;8.67;;;;;24.65;49.18;101814.09;5029284;28;45728;-76
2022/07/13 05:11:24;;;;;;;;;8.00;8.00;;;;;24.93;49.00;101817.69;5026176;28;46191;-74
2022/07/13 05:13:49;;;;;;;;;8.00;8.00;;;;;25.18;48.45;101817.94;5028891;28;45578;-71
2022/07/13 05:16:15;;;;;;;;;9.00;9.00;;;;;25.45;47.87;101818.03;5028317;28;45628;-74
2022/07/13 05:18:40;;;;;;;;;7.33;7.33;;;;;25.67;47.31;101811.31;5025294;28;45471;-73
2022/07/13 05:21:06;;;;;;;;;7.00;7.00;;;;;25.93;47.18;101824.06;5028116;28;55668;-76
2022/07/13 05:23:31;;;;;;;;;9.67;9.67;;;;;26.14;46.97;101831.88;5035470;28;45699;-75
2022/07/13 05:25:57;;;;;;;;;10.33;8.00;;;;;26.33;46.18;101829.97;5027546;28;45983;-75
2022/07/13 05:28:22;;;;;;;;;9.33;8.00;;;;;26.50;45.65;101833.66;5025896;28;45489;-76
2022/07/13 05:30:48;;;;;;;;;10.33;10.33;;;;;26.66;45.81;101829.28;5027671;28;46310;-74
2022/07/13 05:33:20;;;;;;;;;8.67;8.33;;;;;26.83;45.31;101839.25;5026706;28;45503;-74
2022/07/13 05:35:45;;;;;;;;;10.00;10.00;;;;;26.98;45.06;101829.59;5024758;28;45594;-71
2022/07/13 05:38:11;;;;;;;;;9.00;9.00;;;;;27.11;44.55;101840.88;5029778;28;45405;-75
2022/07/13 05:40:37;;;;;;;;;7.00;6.00;;;;;27.23;44.43;101830.50;5027878;28;47030;-76
2022/07/13 05:43:02;;;;;;;;;8.33;8.00;;;;;27.34;44.35;101832.91;5029516;28;45547;-72
2022/07/13 05:45:29;;;;;;;;;7.33;7.33;;;;;27.44;44.48;101834.63;5027464;28;45741;-74
2022/07/13 05:47:54;;;;;;;;;9.67;8.33;;;;;27.53;43.60;101839.06;5028908;28;45389;-76
2022/07/13 05:50:19;;;;;;;;;8.67;6.67;;;;;27.62;43.79;101834.50;5034830;28;45746;-74
2022/07/13 05:52:45;;;;;;;;;8.00;8.00;;;;;27.71;43.03;101838.09;5028782;28;45431;-74
2022/07/13 05:55:11;;;;;;;;;7.67;7.67;;;;;27.78;43.45;101827.34;5034786;28;45466;-74
2022/07/13 05:57:37;;;;;;;;;8.67;8.67;;;;;27.84;43.17;101843.84;5030666;28;45439;-74
2022/07/13 06:00:10;;;;;;;;;9.00;8.00;;;;;27.85;42.83;101840.13;5035844;28;45403;-75
2022/07/13 06:02:36;;;;;;;;;7.00;7.00;;;;;27.90;43.31;101847.78;5051840;28;45618;-74
2022/07/13 06:05:01;;;;;;;;;6.33;6.33;;;;;27.93;42.85;101849.31;5049388;28;45823;-75
2022/07/13 06:07:27;;;;;;;;;8.33;8.33;;;;;27.94;43.07;101842.81;5051034;28;45478;-75
2022/07/13 06:09:52;;;;;;;;;9.00;8.00;;;;;27.97;42.40;101848.81;5032741;28;46221;-73
2022/07/13 06:12:17;;;;;;;;;6.67;6.67;;;;;27.96;42.61;101838.06;5040463;28;45553;-74
2022/07/13 06:14:43;;;;;;;;;10.00;8.67;;;;;28.06;42.22;101846.91;5037789;28;45594;-74
2022/07/13 06:17:08;;;;;;;;;9.00;8.33;;;;;28.10;42.28;101847.41;5039412;28;45512;-72
2022/07/13 06:19:34;;;;;;;;;8.33;8.33;;;;;28.13;42.18;101849.81;5025337;28;48466;-71
2022/07/13 06:21:59;;;;;;;;;6.33;6.33;;;;;28.13;42.11;101849.81;5038171;28;45432;-73
2022/07/13 06:24:25;;;;;;;;;8.67;8.00;;;;;28.14;41.93;101846.06;5043666;28;45411;-71
2022/07/13 06:26:51;;;;;;;;;7.33;6.33;;;;;28.11;42.19;101849.13;5037782;28;45598;-72
2022/07/13 06:29:16;;;;;;;;;9.00;8.33;;;;;28.06;42.52;101849.66;5038519;28;46004;-72
2022/07/13 06:31:42;;;;;;;;;7.00;6.67;;;;;28.03;42.12;101847.25;5039208;28;45459;-72
2022/07/13 06:34:07;;;;;;;;;8.00;6.00;;;;;28.02;41.89;101840.09;5041127;28;45769;-73
2022/07/13 06:36:32;;;;;;;;;8.67;7.00;;;;;27.96;42.54;101835.34;5047988;28;45352;-72
2022/07/13 06:38:58;;;;;;;;;9.00;8.33;;;;;27.93;41.11;101839.28;5042398;28;46162;-72
2022/07/13 06:41:23;;;;;;;;;11.00;9.67;;;;;27.92;41.12;101840.28;5032469;28;45907;-72
2022/07/13 06:43:49;;;;;;;;;9.00;9.00;;;;;27.92;41.24;101848.47;5032338;28;45522;-73
2022/07/13 06:46:14;;;;;;;;;9.33;9.00;;;;;27.94;41.48;101842.81;5050365;28;45404;-72
2022/07/13 06:48:39;;;;;;;;;12.67;10.33;;;;;27.96;41.98;101846.25;5049756;28;46160;-72
2022/07/13 06:51:05;;;;;;;;;8.67;6.00;;;;;27.96;41.73;101846.25;5053242;28;45562;-72
2022/07/13 06:53:30;;;;;;;;;8.33;8.33;;;;;28.00;41.70;101853.91;5044123;28;45524;-72
2022/07/13 06:55:56;;;;;;;;;8.00;7.00;;;;;28.02;41.63;101845.56;5037815;28;46879;-72
2022/07/13 06:58:21;;;;;;;;;9.67;9.67;;;;;28.02;41.57;101848.28;5043902;28;45515;-72
2022/07/13 07:00:47;;;;;;;;;8.67;8.33;;;;;28.04;41.76;101848.13;5038191;28;47440;-72
2022/07/13 07:03:13;;;;;;;;;9.33;7.00;;;;;28.05;41.52;101850.69;5053526;28;45337;-72
2022/07/13 07:05:38;;;;;;;;;7.67;7.67;;;;;28.06;41.54;101849.66;5053696;28;45312;-72
2022/07/13 07:08:04;;;;;;;;;9.33;8.00;;;;;28.09;40.90;101851.19;5054359;28;45441;-72
2022/07/13 07:10:29;;;;;;;;;8.67;8.33;;;;;28.12;41.49;101848.13;5051667;28;45491;-72
2022/07/13 07:12:55;;;;;;;;;10.33;9.00;;;;;28.15;40.59;101848.59;5051292;28;45619;-73
2022/07/13 07:15:20;;;;;;;;;8.00;7.67;;;;;28.19;40.94;101849.09;5051440;28;45528;-72
2022/07/13 07:17:46;;;;;;;;;8.00;8.00;;;;;28.19;41.29;101849.09;5044938;28;46040;-73
2022/07/13 07:20:13;;;;;;;;;9.00;9.00;;;;;28.21;41.50;101857.13;5049261;28;45464;-73
2022/07/13 07:22:39;;;;;;;;;10.00;10.00;;;;;28.20;41.10;101856.25;5044481;28;45579;-73
2022/07/13 07:25:05;;;;;;;;;8.33;7.00;;;;;28.19;40.73;101860.03;5045133;28;45735;-73
2022/07/13 07:27:30;;;;;;;;;8.67;8.67;;;;;28.20;40.11;101852.69;5034587;28;46211;-73
2022/07/13 07:29:56;;;;;;;;;10.00;8.00;;;;;28.20;40.62;101855.44;5047398;28;45479;-74
2022/07/13 07:32:21;;;;;;;;;9.00;9.00;;;;;28.17;40.11;101842.97;5034899;28;45556;-76
2022/07/13 07:34:46;;;;;;;;;8.67;8.67;;;;;28.18;39.70;101849.28;5038124;28;45740;-75
2022/07/13 07:37:12;;;;;;;;;14.00;11.00;;;;;28.21;40.17;101854.41;5044011;28;45535;-75
2022/07/13 07:39:37;;;;;;;;;9.33;9.33;;;;;28.20;39.89;101841.78;5044145;28;45420;-76
2022/07/13 07:42:04;;;;;;;;;8.67;8.00;;;;;28.36;39.56;101849.13;5043027;28;45439;-75
2022/07/13 07:44:30;;;;;;;;;11.67;11.67;;;;;28.44;39.58;101851.81;5038461;28;45644;-75
2022/07/13 07:46:56;;;;;;;;;12.33;11.33;;;;;28.50;39.67;101845.66;5041181;28;47005;-75
2022/07/13 07:49:21;;;;;;;;;9.00;9.00;;;;;28.53;39.47;101853.47;5043060;28;45377;-75
2022/07/13 07:51:46;;;;;;;;;10.00;10.00;;;;;28.55;39.48;101845.13;5043241;28;45371;-74
2022/07/13 07:54:12;;;;;;;;;9.00;9.00;;;;;28.58;39.44;101847.50;5034812;28;46720;-75
2022/07/13 07:56:37;;;;;;;;;10.67;9.33;;;;;28.62;39.17;101845.28;5041845;28;46169;-75
2022/07/13 07:59:02;;;;;;;;;6.33;6.00;;;;;28.66;39.33;101841.16;5052080;28;45378;-75
2022/07/13 08:01:28;;;;;;;;;10.67;9.00;;;;;28.69;39.31;101846.25;5034775;28;45852;-76
2022/07/13 08:03:54;;;;;;;;;9.33;9.33;;;;;28.77;39.68;101837.19;5048155;28;45460;-76
2022/07/13 08:06:20;;;;;;;;;8.33;7.00;;;;;28.88;38.98;101844.13;5046452;28;47096;-76
2022/07/13 08:08:45;;;;;;;;;9.67;9.67;;;;;28.95;39.53;101839.69;5040155;28;45462;-76
2022/07/13 08:11:16;;;;;;;;;10.67;8.67;;;;;29.03;38.77;101839.66;5038962;28;45560;-76
2022/07/13 08:13:41;;;;;;;;;8.00;7.67;;;;;29.08;38.80;101835.50;5051505;28;45474;-75
2022/07/13 08:16:07;;;;;;;;;9.33;7.67;;;;;29.16;38.73;101832.72;5050146;28;45535;-76
2022/07/13 08:18:32;;;;;;;;;7.00;6.00;;;;;29.21;38.57;101833.03;5039324;28;45604;-76
2022/07/13 08:20:58;;;;;;;;;11.33;11.00;;;;;29.26;39.16;101838.81;5034754;28;45388;-78
2022/07/13 08:26:07;;;;;;;;;8.00;7.00;;;;;29.26;38.77;101829.75;5049490;28;46554;-76
2022/07/13 08:28:32;;;;;;;;;8.00;8.00;;;;;29.38;38.26;101843.88;5033669;28;45700;-78
2022/07/13 08:30:58;;;;;;;;;13.67;10.33;;;;;29.41;38.59;101838.00;5041303;28;45945;-82
2022/07/13 08:38:51;;;;;;;;;9.33;8.00;;;;;29.48;38.51;101836.25;5039688;28;45610;-73
2022/07/13 08:41:16;;;;;;;;;7.00;7.00;;;;;29.48;38.48;101830.81;5045171;28;46025;-72
2022/07/13 08:43:42;;;;;;;;;7.00;7.00;;;;;29.52;38.60;101840.38;5039045;28;45439;-73
2022/07/13 08:46:08;;;;;;;;;10.33;7.00;;;;;29.52;38.55;101832.16;5039171;28;46331;-74
2022/07/13 08:48:38;;;;;;;;;7.67;7.67;;;;;29.57;38.74;101839.81;5042716;28;45589;-74
2022/07/13 08:51:05;;;;;;;;;7.33;7.00;;;;;29.59;38.33;101837.75;5049100;28;45567;-73
2022/07/13 08:53:30;;;;;;;;;9.67;8.67;;;;;29.61;39.04;101834.81;5038549;28;45618;-73
2022/07/13 08:55:57;;;;;;;;;7.67;7.67;;;;;29.64;38.39;101823.50;5036362;28;46073;-73
2022/07/13 08:58:22;;;;;;;;;5.67;5.67;;;;;29.67;38.99;101829.47;5038719;28;45490;-72
2022/07/13 09:00:49;;;;;;;;;6.33;5.00;;;;;29.71;39.09;101832.69;5047459;28;45472;-75
2022/07/13 09:03:14;;;;;;;;;4.67;4.67;;;;;29.73;38.54;101827.88;5036846;28;45703;-74
2022/07/13 09:05:40;;;;;;;;;8.33;7.00;;;;;29.75;38.60;101825.78;5032579;28;46112;-74
2022/07/13 09:08:07;;;;;;;;;8.00;8.00;;;;;29.78;39.15;101822.69;5039138;28;45454;-74
2022/07/13 09:10:54;;;;;;;;;8.33;8.00;;;;;29.83;39.01;101817.53;5034878;28;45429;-72
2022/07/13 09:13:33;;;;;;;;;8.67;8.67;;;;;29.87;38.98;101820.72;5047728;28;45527;-73
2022/07/13 09:16:19;;;;;;;;;7.67;7.67;;;;;29.91;39.30;101822.06;5045807;28;45596;-73
2022/07/13 09:18:50;;;;;;;;;8.00;8.00;;;;;29.95;38.72;101820.66;5034981;28;45700;-73
2022/07/13 09:21:16;;;;;;;;;7.33;6.67;;;;;29.98;38.81;101825.78;5045813;28;45398;-73
2022/07/13 09:23:42;;;;;;;;;8.00;8.00;;;;;30.01;39.31;101824.53;5045480;28;45467;-73
2022/07/13 09:26:08;;;;;;;;;5.33;4.67;;;;;30.05;39.52;101830.47;5046011;28;46227;-72
2022/07/13 09:28:47;;;;;;;;;9.33;6.67;;;;;30.07;39.09;101829.25;5035534;28;45515;-73
2022/07/13 09:31:13;;;;;;;;;7.33;7.33;;;;;30.13;39.40;101829.56;5033769;28;45667;-73
2022/07/13 09:33:41;;;;;;;;;6.67;6.67;;;;;30.10;39.26;101823.41;5039955;28;45503;-72
2022/07/13 09:36:13;;;;;;;;;6.33;6.33;;;;;29.90;38.89;101820.38;5044675;28;45558;-73
2022/07/13 09:38:43;;;;;;;;;6.67;6.67;;;;;29.69;38.51;101824.69;5038218;28;45865;-73
2022/07/13 09:41:14;;;;;;;;;8.00;7.00;;;;;29.50;38.98;101825.16;5040744;28;45529;-72
2022/07/13 09:46:36;;;;;;;;;7.67;7.67;;;;;29.13;39.70;101825.72;5044196;28;45723;-72
2022/07/13 09:49:02;;;;;;;;;7.67;6.67;;;;;29.00;40.05;101809.94;5037733;28;46471;-72
2022/07/13 09:51:27;;;;;;;;;6.67;6.67;;;;;28.85;39.76;101807.06;5039151;28;45428;-71
2022/07/13 09:53:59;;;;;;;;;7.00;7.00;;;;;28.85;40.57;101818.00;5037670;28;45463;-71
2022/07/13 09:56:26;;;;;;;;;6.67;6.00;;;;;28.82;40.16;101817.53;5040789;28;45480;-71
2022/07/13 09:58:53;;;;;;;;;6.00;6.00;;;;;28.78;40.47;101823.31;5046201;28;45333;-69
2022/07/13 10:01:18;;;;;;;;;6.67;6.67;;;;;28.73;40.43;101820.28;5043334;28;45511;-71
2022/07/13 10:03:44;;;;;;;;;6.00;6.00;;;;;28.66;39.91;101814.69;5040149;28;45472;-74
2022/07/13 10:06:09;;;;;;;;;8.67;6.00;;;;;28.59;40.80;101812.84;5046404;28;45371;-74
2022/07/13 10:08:38;;;;;;;;;7.00;7.00;;;;;28.58;40.83;101819.34;5039850;28;45430;-74
2022/07/13 10:11:04;;;;;;;;;9.00;7.33;;;;;28.52;40.50;101816.28;5036936;28;45484;-74
2022/07/13 10:13:30;;;;;;;;;10.00;8.00;;;;;28.48;41.29;101823.13;5045487;28;45432;-74
2022/07/13 10:15:55;;;;;;;;;6.00;6.00;;;;;28.44;40.76;101810.00;5041751;28;45800;-72
2022/07/13 10:18:24;;;;;;;;;7.00;7.00;;;;;28.47;41.03;101812.38;5048249;28;45330;-73
2022/07/13 10:21:03;;;;;;;;;6.00;5.33;;;;;28.48;41.47;101812.19;5054144;28;45714;-73
2022/07/13 10:23:35;;;;;;;;;9.00;7.67;;;;;28.51;41.11;101808.25;5052340;28;45508;-72
2022/07/13 10:26:01;;;;;;;;;8.33;5.00;;;;;28.52;41.81;101808.09;5033153;28;46644;-73
2022/07/13 10:28:26;;;;;;;;;6.33;5.33;;;;;28.55;40.91;101815.09;5034795;28;45671;-73
2022/07/13 10:30:51;;;;;;;;;6.67;6.67;;;;;28.57;41.65;101809.44;5035072;28;45738;-73
2022/07/13 10:33:19;;;;;;;;;8.00;7.33;;;;;28.58;41.39;101808.41;5034751;28;45721;-73
2022/07/13 10:35:53;;;;;;;;;5.67;5.67;;;;;28.59;41.50;101807.38;5046071;28;45484;-72
2022/07/13 10:38:22;;;;;;;;;5.33;5.33;;;;;28.56;41.93;101802.28;5032506;28;45510;-73
2022/07/13 10:40:48;;;;;;;;;6.00;5.00;;;;;28.58;41.51;101797.50;5039144;28;45965;-73
2022/07/13 10:43:15;;;;;;;;;5.33;4.67;;;;;28.58;41.37;101801.09;5032547;28;45704;-73
2022/07/13 10:45:44;;;;;;;;;7.00;6.00;;;;;28.57;41.47;101796.63;5031783;28;45621;-73
2022/07/13 10:48:21;;;;;;;;;4.67;4.67;;;;;28.56;41.86;101797.66;5040322;28;45808;-70
2022/07/13 10:50:52;;;;;;;;;6.33;4.67;;;;;28.67;41.61;101799.16;5046294;28;45876;-70
2022/07/13 10:53:19;;;;;;;;;5.67;5.33;;;;;28.82;41.39;101791.06;5035168;28;45508;-70
2022/07/13 10:55:48;;;;;;;;;3.33;3.33;;;;;28.93;41.22;101798.88;5032606;28;45689;-70
2022/07/13 10:58:35;;;;;;;;;9.00;6.00;;;;;29.06;41.07;101794.72;5033608;28;46067;-72
2022/07/13 11:01:21;;;;;;;;;3.00;3.00;;;;;29.15;40.76;101790.03;5021382;28;47141;-72
2022/07/13 11:03:47;;;;;;;;;5.00;4.67;;;;;29.26;40.58;101786.84;5033534;28;45503;-71
2022/07/13 11:06:20;;;;;;;;;4.00;3.67;;;;;29.35;39.79;101795.88;5036619;28;46264;-71
2022/07/13 11:08:46;;;;;;;;;4.00;4.00;;;;;29.42;39.78;101799.56;5033451;28;45908;-71
2022/07/13 11:11:14;;;;;;;;;4.67;3.00;;;;;29.48;40.41;101791.66;5034606;28;45412;-71
2022/07/13 11:13:40;;;;;;;;;4.00;4.00;;;;;29.53;40.17;101794.72;5031697;28;46411;-71
2022/07/13 11:16:07;;;;;;;;;5.67;5.67;;;;;29.56;39.49;101784.28;5031630;28;46264;-71
2022/07/13 11:18:53;;;;;;;;;3.00;3.00;;;;;29.61;40.10;101788.31;5021343;28;45519;-71
2022/07/13 11:21:22;;;;;;;;;3.00;3.00;;;;;29.63;39.21;101791.72;5032143;28;47386;-71
2022/07/13 11:26:48;;;;;;;;;4.00;2.67;;;;;29.72;39.74;101779.69;5033538;28;45783;-71
2022/07/13 11:29:32;;;;;;;;;2.33;2.00;;;;;29.73;39.90;101767.69;5032550;28;45760;-71
2022/07/13 11:31:59;;;;;;;;;3.00;3.00;;;;;29.75;39.85;101781.19;5029507;28;46551;-71
2022/07/13 11:34:25;;;;;;;;;3.67;3.00;;;;;29.77;39.52;101781.84;5035572;28;45600;-71
2022/07/13 11:36:52;;;;;;;;;6.00;4.00;;;;;29.80;39.71;101779.56;5032170;28;45554;-71
2022/07/13 11:39:27;;;;;;;;;6.00;6.00;;;;;29.81;38.94;101777.69;5030574;28;45503;-71
2022/07/13 11:41:54;;;;;;;;;6.00;6.00;;;;;29.83;39.69;101772.88;5032274;28;47208;-72
2022/07/13 11:44:22;;;;;;;;;6.00;5.00;;;;;29.85;39.42;101771.69;5033424;28;46932;-71
2022/07/13 11:46:48;;;;;;;;;4.00;4.00;;;;;29.87;38.96;101766.00;5033861;28;46335;-71
2022/07/13 11:49:13;;;;;;;;;2.67;2.67;;;;;29.90;39.39;101757.44;5030646;28;45565;-72
2022/07/13 11:51:42;;;;;;;;;3.67;3.67;;;;;29.93;39.29;101762.53;5032446;28;45701;-71
2022/07/13 11:54:13;;;;;;;;;3.00;2.00;;;;;29.97;39.53;101760.28;5032234;28;45720;-71
2022/07/13 11:56:49;;;;;;;;;4.33;3.33;;;;;29.99;39.28;101758.19;5034499;28;48036;-71
2022/07/13 11:59:33;;;;;;;;;4.00;3.67;;;;;29.89;39.36;101754.88;5038568;28;46973;-76
2022/07/13 12:01:59;;;;;;;;;4.67;4.67;;;;;29.62;39.97;101740.81;5031941;28;45916;-74
2022/07/13 12:04:25;;;;;;;;;4.00;4.00;;;;;29.49;39.67;101736.78;5032315;28;45626;-74
2022/07/13 12:06:51;;;;;;;;;5.00;3.00;;;;;29.36;40.25;101740.16;5031671;28;46338;-73
2022/07/13 12:09:18;;;;;;;;;2.67;2.67;;;;;29.27;40.31;101735.78;5031699;28;45460;-73
2022/07/13 12:11:43;;;;;;;;;2.00;2.00;;;;;29.19;41.00;101732.06;5037416;28;45565;-73
2022/07/13 12:14:09;;;;;;;;;3.00;3.00;;;;;29.08;41.04;101717.97;5055322;28;45390;-74
2022/07/13 12:16:35;;;;;;;;;2.33;2.33;;;;;29.03;40.86;101719.41;5034577;28;46522;-75
2022/07/13 12:19:09;;;;;;;;;3.33;3.33;;;;;28.98;40.92;101730.00;5031163;28;47116;-76
2022/07/13 12:21:35;;;;;;;;;6.00;5.00;;;;;28.90;41.67;101733.66;5035437;28;45473;-73
2022/07/13 12:24:02;;;;;;;;;4.00;3.33;;;;;28.85;41.17;101735.22;5040615;28;45473;-74
2022/07/13 12:26:28;;;;;;;;;3.33;3.00;;;;;28.79;42.05;101726.72;5032909;28;46289;-74
2022/07/13 12:28:54;;;;;;;;;3.00;3.00;;;;;28.75;41.49;101722.63;5033893;28;45507;-77
2022/07/13 12:31:21;;;;;;;;;4.67;4.67;;;;;28.76;41.69;101734.41;5034333;28;45833;-77
2022/07/13 12:33:50;;;;;;;;;4.00;3.00;;;;;28.76;42.07;101720.72;5055014;28;45495;-73
2022/07/13 12:36:20;;;;;;;;;4.00;3.00;;;;;28.76;42.24;101718.00;5046907;28;47424;-72
2022/07/13 12:38:57;;;;;;;;;4.67;4.00;;;;;28.76;41.93;101716.13;5035298;28;45534;-72
2022/07/13 12:41:26;;;;;;;;;5.00;5.00;;;;;28.75;41.50;101708.13;5052383;28;45530;-73
2022/07/13 12:43:55;;;;;;;;;4.00;4.00;;;;;28.79;41.75;101721.25;5038285;28;45664;-73
2022/07/13 12:46:21;;;;;;;;;5.00;5.00;;;;;28.78;42.08;101707.75;5045172;28;45906;-73
2022/07/13 12:48:57;;;;;;;;;3.33;2.00;;;;;28.82;41.74;101714.56;5053954;28;45428;-73
2022/07/13 12:51:22;;;;;;;;;4.00;4.00;;;;;28.83;41.49;101708.06;5046557;28;45598;-73
2022/07/13 12:53:52;;;;;;;;;3.33;3.33;;;;;28.83;42.22;101705.34;5045766;28;45416;-74
2022/07/13 12:56:19;;;;;;;;;2.00;2.00;;;;;28.81;42.17;101696.44;5045296;28;46946;-74
2022/07/13 12:58:47;;;;;;;;;4.00;4.00;;;;;28.85;42.12;101703.25;5053859;28;45463;-73
2022/07/13 13:01:27;;;;;;;;;3.33;3.33;;;;;28.85;41.63;101695.06;5037145;28;45490;-73
2022/07/13 13:03:52;;;;;;;;;4.00;4.00;;;;;28.83;41.85;101685.34;5034041;28;45357;-73
2022/07/13 13:06:17;;;;;;;;;4.33;3.67;;;;;28.85;41.82;101688.78;5043835;28;45668;-72
2022/07/13 13:08:43;;;;;;;;;4.33;4.33;;;;;28.79;41.19;101673.94;5053408;28;53682;-73
2022/07/13 13:11:08;;;;;;;;;4.00;4.00;;;;;28.81;41.80;101671.88;5046464;28;52835;-73
2022/07/13 13:13:34;;;;;;;;;3.67;3.33;;;;;28.82;41.48;101672.72;5034236;28;45631;-73
2022/07/13 13:15:59;;;;;;;;;4.00;4.00;;;;;28.83;42.16;101674.41;5048484;28;46028;-72
2022/07/13 13:18:24;;;;;;;;;4.67;4.00;;;;;28.82;42.26;101664.53;5038384;28;45431;-73
2022/07/13 13:20:50;;;;;;;;;3.33;3.33;;;;;28.82;42.26;101661.81;5034527;28;46285;-73
2022/07/13 13:23:15;;;;;;;;;5.00;3.33;;;;;28.83;41.61;101653.44;5055185;28;45586;-73
2022/07/13 13:25:40;;;;;;;;;5.00;5.00;;;;;28.83;42.35;101655.31;5045835;28;46122;-72
2022/07/13 13:28:06;;;;;;;;;4.00;3.00;;;;;28.88;41.99;101664.69;5041282;28;45534;-72
2022/07/13 13:30:46;;;;;;;;;4.00;4.00;;;;;28.95;42.21;101656.59;5047546;28;45399;-74
2022/07/13 13:33:14;;;;;;;;;2.00;2.00;;;;;29.00;42.53;101659.63;5043800;28;45471;-73
2022/07/13 13:35:39;;;;;;;;;3.00;3.00;;;;;29.01;42.03;101652.31;5042593;28;46359;-72
2022/07/13 13:38:06;;;;;;;;;4.33;3.33;;;;;29.09;41.95;101656.84;5054066;28;45493;-75
2022/07/13 13:40:32;;;;;;;;;3.67;3.67;;;;;29.11;42.21;101657.50;5056251;28;45671;-74
2022/07/13 13:42:57;;;;;;;;;4.33;3.00;;;;;29.09;41.82;101657.69;5058185;28;45377;-72
2022/07/13 13:45:22;;;;;;;;;6.67;4.67;;;;;29.05;42.31;101653.59;5048722;28;46071;-72
2022/07/13 13:47:48;;;;;;;;;6.33;3.67;;;;;29.07;42.64;101648.81;5038317;28;45460;-72
2022/07/13 13:50:13;;;;;;;;;5.33;2.67;;;;;29.05;42.62;101648.13;5040921;28;45771;-72
2022/07/13 13:52:38;;;;;;;;;4.00;4.00;;;;;29.05;43.04;101645.41;5030125;28;45909;-73
2022/07/13 13:55:04;;;;;;;;;3.00;3.00;;;;;29.05;42.81;101643.53;5050885;28;46461;-72
2022/07/13 13:57:29;;;;;;;;;3.00;3.00;;;;;29.04;42.60;101643.72;5038804;28;45421;-72
2022/07/13 13:59:55;;;;;;;;;2.33;2.33;;;;;29.05;43.07;101650.88;5037483;28;45452;-72
2022/07/13 14:02:20;;;;;;;;;2.00;2.00;;;;;29.09;43.03;101637.72;5045738;28;45565;-72
2022/07/13 14:04:45;;;;;;;;;7.33;4.00;;;;;29.12;42.31;101637.31;5051648;28;46970;-72
2022/07/13 14:07:11;;;;;;;;;5.00;3.00;;;;;29.14;42.77;101627.91;5043634;28;45598;-73
2022/07/13 14:09:37;;;;;;;;;4.00;4.00;;;;;29.11;42.61;101632.91;5047349;28;45399;-72
2022/07/13 14:12:02;;;;;;;;;3.67;3.67;;;;;29.22;43.16;101628.88;5037153;28;45508;-72
2022/07/13 14:14:27;;;;;;;;;3.33;3.00;;;;;29.24;43.17;101632.25;5045545;28;45266;-72
2022/07/13 14:16:53;;;;;;;;;4.00;4.00;;;;;29.26;43.12;101620.09;5037557;28;45428;-73
2022/07/13 14:19:18;;;;;;;;;3.00;3.00;;;;;29.29;43.05;101621.59;5037121;28;45386;-73
2022/07/13 14:21:43;;;;;;;;;2.67;2.67;;;;;29.30;43.20;101620.59;5041428;28;45263;-73
2022/07/13 14:24:09;;;;;;;;;4.33;3.00;;;;;29.29;42.91;101616.13;5050370;28;56694;-74
2022/07/13 14:26:34;;;;;;;;;3.00;3.00;;;;;29.24;42.99;101602.19;5056944;28;45706;-74
2022/07/13 14:28:59;;;;;;;;;2.33;2.33;;;;;29.25;43.09;101601.16;5046433;28;45450;-74
2022/07/13 14:31:25;;;;;;;;;3.00;2.33;;;;;29.22;43.35;101598.81;5050376;28;47802;-75
2022/07/13 14:33:50;;;;;;;;;3.67;3.67;;;;;29.19;43.28;101592.66;5036721;28;47494;-78
2022/07/13 14:36:21;;;;;;;;;3.00;3.00;;;;;29.24;43.19;101600.31;5039135;28;45468;-75
2022/07/13 14:38:47;;;;;;;;;3.00;3.00;;;;;29.25;42.89;101588.34;5053163;28;45712;-75
2022/07/13 14:41:13;;;;;;;;;3.00;3.00;;;;;29.19;42.09;101578.16;5051128;28;45408;-73
2022/07/13 14:43:38;;;;;;;;;2.00;2.00;;;;;29.23;42.31;101590.44;5048077;28;46073;-74
2022/07/13 14:46:03;;;;;;;;;2.33;2.33;;;;;29.22;42.05;101588.69;5049781;28;46381;-74
2022/07/13 14:48:29;;;;;;;;;4.00;2.67;;;;;29.18;42.56;101576.47;5041090;28;45472;-74
2022/07/13 14:50:54;;;;;;;;;3.00;3.00;;;;;29.19;42.97;101576.25;5050580;28;45617;-75
2022/07/13 14:53:19;;;;;;;;;3.00;3.00;;;;;29.26;42.59;101572.81;5045599;28;46033;-75
2022/07/13 14:55:45;;;;;;;;;2.67;2.00;;;;;29.29;42.42;101586.94;5035989;28;45399;-74
2022/07/13 14:58:10;;;;;;;;;3.00;2.67;;;;;29.30;42.85;101585.88;5036979;28;45478;-74
2022/07/13 15:00:36;;;;;;;;;2.00;2.00;;;;;29.31;42.25;101582.13;5048972;28;45532;-74
2022/07/13 15:03:01;;;;;;;;;2.67;2.67;;;;;29.24;42.66;101564.78;5036573;28;45770;-76
2022/07/13 15:05:28;;;;;;;;;2.67;2.00;;;;;29.30;42.39;101566.75;5050173;28;45376;-75
2022/07/13 15:07:54;;;;;;;;;3.00;3.00;;;;;29.27;42.73;101561.69;5035473;28;45914;-77
2022/07/13 15:10:20;;;;;;;;;3.33;3.33;;;;;29.26;42.54;101553.66;5043459;28;45365;-77
2022/07/13 15:12:46;;;;;;;;;3.00;3.00;;;;;29.29;42.75;101561.47;5043299;28;46086;-76
2022/07/13 15:15:12;;;;;;;;;3.00;2.00;;;;;29.25;42.95;101561.00;5056494;28;45483;-75
2022/07/13 15:17:37;;;;;;;;;2.33;2.33;;;;;29.26;42.74;101554.50;5042396;28;45445;-75
2022/07/13 15:20:04;;;;;;;;;2.67;1.33;;;;;29.27;42.91;101553.47;5050184;28;45385;-75
2022/07/13 15:22:30;;;;;;;;;2.00;2.00;;;;;29.28;43.19;101554.31;5041377;28;45956;-73
2022/07/13 15:24:55;;;;;;;;;2.33;2.33;;;;;29.24;42.92;101539.31;5050005;28;45567;-74
2022/07/13 15:27:20;;;;;;;;;3.00;3.00;;;;;29.29;43.36;101542.31;5036198;28;45413;-74
2022/07/13 15:29:46;;;;;;;;;2.00;2.00;;;;;29.35;42.87;101554.41;5042690;28;45456;-74
2022/07/13 15:32:11;;;;;;;;;3.00;1.67;;;;;29.37;42.98;101541.38;5033437;28;47158;-74
2022/07/13 15:34:37;;;;;;;;;3.33;3.33;;;;;29.33;43.18;101535.44;5013806;28;45532;-74
2022/07/13 15:37:02;;;;;;;;;5.67;5.00;;;;;29.35;43.24;101535.28;5041180;28;45517;-75
2022/07/13 15:39:28;;;;;;;;;4.67;3.67;;;;;29.34;42.93;101542.63;5032564;28;45504;-75
2022/07/13 15:41:53;;;;;;;;;2.00;2.00;;;;;29.33;43.48;101527.25;5032998;28;45760;-74
2022/07/13 15:44:19;;;;;;;;;4.00;3.00;;;;;29.35;42.93;101533.41;5031970;28;45482;-73
2022/07/13 15:46:45;;;;;;;;;2.00;2.00;;;;;29.33;42.90;101521.78;5033060;28;46649;-74
2022/07/13 15:49:11;;;;;;;;;3.00;3.00;;;;;29.36;43.51;101524.16;5029094;28;45941;-75
2022/07/13 15:51:36;;;;;;;;;3.00;3.00;;;;;29.39;43.26;101523.75;5027174;28;45939;-73
2022/07/13 15:54:02;;;;;;;;;2.00;2.00;;;;;29.41;42.77;101518.97;5030040;28;49812;-73
2022/07/13 15:56:27;;;;;;;;;3.00;2.33;;;;;29.43;42.58;101518.78;5033889;28;45637;-74
2022/07/13 15:58:55;;;;;;;;;4.00;2.00;;;;;29.46;42.73;101521.97;5032596;28;45617;-73
2022/07/13 16:01:21;;;;;;;;;5.00;3.00;;;;;29.47;42.59;101514.63;5032534;28;47097;-74
2022/07/13 16:03:46;;;;;;;;;2.00;2.00;;;;;29.48;42.52;101512.72;5031632;28;45716;-74
2022/07/13 16:06:11;;;;;;;;;3.00;3.00;;;;;29.46;42.24;101510.16;5032481;28;45925;-73
2022/07/13 16:08:36;;;;;;;;;2.33;2.33;;;;;29.42;42.61;101517.91;5025104;28;45801;-73
2022/07/13 16:11:02;;;;;;;;;3.00;3.00;;;;;29.41;42.08;101509.91;5024127;28;47186;-74
2022/07/13 16:13:27;;;;;;;;;2.00;2.00;;;;;29.39;42.20;101499.13;5025041;28;45851;-74
2022/07/13 16:15:53;;;;;;;;;4.67;3.33;;;;;29.37;42.21;101503.09;5044851;28;50238;-75
2022/07/13 16:18:18;;;;;;;;;2.00;2.00;;;;;29.38;42.01;101504.81;5038082;28;45507;-73
2022/07/13 16:20:44;;;;;;;;;5.00;3.00;;;;;29.39;42.60;101495.56;5037285;28;47139;-74
2022/07/13 16:23:09;;;;;;;;;3.00;3.00;;;;;29.38;42.72;101500.19;5042516;28;45553;-75
